Time;durP1;ratioP1;P1;durP2;ratioP2;P2;SDS_P1;SDS_P2;PMS_P1;PMS_P2;Temp;Humidity;BMP_temperature;BMP_pressure;BME280_temperature;BME280_humidity;BME280_pressure;Samples;Min_cycle;Max_cycle;Signal;HPM_P1;HPM_P2
2022/06/24 00:00:17;;;;;;;2.67;1.40;;;23.40;84.20;;;23.96;52.43;98163.25;4981306;28;113417;-85
2022/06/24 00:02:49;;;;;;;1.50;1.00;;;23.40;84.60;;;23.98;52.69;98160.84;4984337;28;124829;-85
2022/06/24 00:05:16;;;;;;;1.97;0.90;;;23.40;85.00;;;24.00;52.79;98163.25;4979974;28;124064;-85
2022/06/24 00:07:49;;;;;;;1.87;1.10;;;23.40;85.40;;;24.00;53.07;98158.41;4980432;28;115514;-85
2022/06/24 00:10:22;;;;;;;1.97;1.00;;;23.40;86.00;;;23.97;53.33;98153.59;4977617;28;115795;-85
2022/06/24 00:12:51;;;;;;;1.73;1.23;;;23.40;86.60;;;23.93;53.43;98157.66;4976282;28;124604;-85
2022/06/24 00:15:34;;;;;;;1.30;1.00;;;23.40;86.80;;;23.92;53.53;98151.22;4977131;28;123510;-85
2022/06/24 00:18:27;;;;;;;2.10;1.20;;;23.40;87.20;;;23.95;53.59;98158.06;4984112;28;114217;-85
2022/06/24 00:20:53;;;;;;;3.80;1.63;;;23.40;87.50;;;23.99;53.79;98153.16;4999008;28;113903;-85
2022/06/24 00:23:21;;;;;;;1.10;0.90;;;23.40;87.80;;;24.02;53.56;98149.53;4978941;28;124157;-84
2022/06/24 00:25:49;;;;;;;4.57;1.20;;;23.40;87.90;;;24.05;53.57;98137.41;4996253;28;123497;-84
2022/06/24 00:28:17;;;;;;;1.47;1.10;;;23.40;88.10;;;24.05;53.92;98143.03;4980749;28;114688;-84
2022/06/24 00:30:51;;;;;;;2.37;1.37;;;23.50;88.40;;;24.05;53.73;98148.69;4970601;28;114141;-85
2022/06/24 00:33:20;;;;;;;1.57;1.13;;;23.50;88.50;;;24.05;53.80;98136.59;4985128;28;124306;-85
2022/06/24 00:35:58;;;;;;;1.63;1.07;;;23.40;88.50;;;24.05;53.79;98140.22;4983675;28;124018;-85
2022/06/24 00:38:30;;;;;;;4.53;1.30;;;23.50;88.70;;;24.05;53.94;98134.56;4971732;28;114425;-84
2022/06/24 00:41:07;;;;;;;3.13;1.20;;;23.50;88.80;;;24.06;53.84;98133.34;4972078;28;114572;-85
2022/06/24 00:43:44;;;;;;;1.57;1.03;;;23.50;88.90;;;24.06;53.84;98138.19;4972546;28;124182;-84
2022/06/24 00:46:22;;;;;;;2.30;1.10;;;23.50;89.00;;;24.04;53.88;98135.78;4971178;28;122542;-85
2022/06/24 00:48:57;;;;;;;1.50;0.97;;;23.50;89.10;;;24.05;54.03;98125.31;4967439;28;114317;-85
2022/06/24 00:51:33;;;;;;;1.50;1.20;;;23.50;89.30;;;24.03;54.27;98123.69;4972529;28;114276;-84
2022/06/24 00:54:08;;;;;;;2.10;1.20;;;23.50;89.50;;;24.05;54.26;98119.66;4971005;28;123993;-85
2022/06/24 00:56:37;;;;;;;1.37;1.10;;;23.50;89.70;;;24.03;54.41;98120.88;4979192;28;124467;-85
2022/06/24 00:59:08;;;;;;;1.87;1.10;;;23.50;89.90;;;24.03;54.29;98122.91;4969441;28;115605;-84
2022/06/24 01:01:37;;;;;;;1.80;1.17;;;23.50;90.00;;;24.03;54.45;98126.50;4973530;28;115066;-85
2022/06/24 01:04:10;;;;;;;5.93;1.40;;;23.50;90.10;;;24.02;54.32;98127.75;4970261;28;124513;-85
2022/06/24 01:06:39;;;;;;;3.03;1.30;;;23.50;90.20;;;24.01;54.68;98114.03;4979340;28;124101;-85
2022/06/24 01:09:07;;;;;;;2.13;1.10;;;23.40;90.20;;;24.00;54.72;98112.44;4976267;28;114271;-85
2022/06/24 01:11:36;;;;;;;3.23;1.30;;;23.40;90.20;;;23.96;54.79;98106.03;4980321;28;113826;-84
2022/06/24 01:14:04;;;;;;;3.30;1.30;;;23.40;90.20;;;23.94;54.40;98091.56;4971514;28;123268;-85
2022/06/24 01:16:31;;;;;;;2.80;1.17;;;23.40;90.20;;;23.92;54.40;98091.19;4973626;28;123985;-84
2022/06/24 01:19:01;;;;;;;2.33;1.20;;;23.40;90.20;;;23.90;54.69;98093.59;4995715;28;114248;-85
2022/06/24 01:21:33;;;;;;;1.77;1.10;;;23.40;90.30;;;23.89;54.62;98095.63;4989779;28;112934;-85
2022/06/24 01:24:11;;;;;;;1.97;1.33;;;23.30;90.30;;;23.87;54.62;98088.81;4969423;28;123116;-86
2022/06/24 01:26:40;;;;;;;1.40;1.03;;;23.30;90.30;;;23.85;54.81;98088.41;4971554;28;123598;-85
2022/06/24 01:29:07;;;;;;;2.10;1.23;;;23.30;90.30;;;23.86;54.81;98075.91;4968451;28;114053;-85
2022/06/24 01:31:34;;;;;;;2.03;1.17;;;23.30;90.40;;;23.84;54.74;98069.91;4975264;28;113409;-85
2022/06/24 01:34:00;;;;;;;1.40;1.17;;;23.30;90.40;;;23.79;54.71;98063.47;4968806;28;124166;-85
2022/06/24 01:36:27;;;;;;;1.87;1.33;;;23.20;90.40;;;23.77;54.85;98068.75;4970496;28;123882;-84
2022/06/24 01:38:53;;;;;;;2.00;1.20;;;23.20;90.40;;;23.74;54.79;98078.03;4978524;28;113892;-85
2022/06/24 01:41:20;;;;;;;3.03;2.10;;;23.20;90.40;;;23.73;54.97;98093.38;4975270;28;113923;-85
2022/06/24 01:43:47;;;;;;;2.33;1.50;;;23.20;90.50;;;23.69;54.95;98095.38;4972875;28;124130;-86
2022/06/24 01:46:13;;;;;;;2.93;1.60;;;23.20;90.40;;;23.66;54.82;98099.03;4983003;28;123754;-85
2022/06/24 01:48:40;;;;;;;1.83;1.20;;;23.10;90.40;;;23.62;54.91;98087.00;4982877;28;114898;-85
2022/06/24 01:51:11;;;;;;;2.93;1.50;;;23.10;90.40;;;23.56;55.05;98083.03;4967062;28;115419;-85
2022/06/24 01:53:37;;;;;;;3.13;1.30;;;23.10;90.50;;;23.53;55.01;98083.84;4977098;28;124047;-85
2022/06/24 01:56:04;;;;;;;1.73;1.13;;;23.00;90.40;;;23.50;55.22;98084.69;4970856;28;124135;-85
2022/06/24 01:58:31;;;;;;;3.70;1.40;;;23.00;90.50;;;23.48;55.19;98075.84;4967956;28;114489;-85
2022/06/24 02:00:57;;;;;;;4.00;1.60;;;23.00;90.60;;;23.46;54.94;98078.31;4979740;28;113841;-85
2022/06/24 02:03:24;;;;;;;2.30;1.30;;;22.90;90.60;;;23.44;55.30;98087.16;4976112;28;124028;-85
2022/06/24 02:05:51;;;;;;;2.00;1.37;;;22.90;90.70;;;23.44;55.21;98086.38;4978142;28;124143;-85
2022/06/24 02:08:18;;;;;;;2.63;1.40;;;22.90;90.70;;;23.42;55.33;98081.13;4969392;28;114120;-85
2022/06/24 02:13:29;;;;;;;1.87;1.60;;;22.90;90.80;;;23.38;55.51;98069.91;4975984;28;124609;-85
2022/06/24 02:16:03;;;;;;;3.63;1.80;;;22.80;90.80;;;23.36;55.70;98074.34;4986710;28;124221;-85
2022/06/24 02:18:31;;;;;;;5.20;1.70;;;22.80;90.90;;;23.31;55.70;98072.78;4979580;28;114629;-85
2022/06/24 02:20:59;;;;;;;2.07;1.23;;;22.80;90.90;;;23.30;55.70;98071.19;4984914;28;114659;-85
2022/06/24 02:23:27;;;;;;;4.20;1.70;;;22.70;90.90;;;23.30;55.37;98076.81;4974863;28;123931;-85
2022/06/24 02:25:54;;;;;;;2.10;1.27;;;22.80;91.00;;;23.29;55.76;98066.78;4974101;28;123878;-85
2022/06/24 02:28:21;;;;;;;1.93;1.13;;;22.70;90.90;;;23.29;55.48;98063.97;4985407;28;114640;-86
2022/06/24 02:30:52;;;;;;;1.80;1.40;;;22.70;90.90;;;23.22;55.68;98064.00;4975079;28;113772;-84
2022/06/24 02:33:19;;;;;;;2.00;1.20;;;22.70;90.90;;;23.15;55.36;98064.06;4971105;28;124111;-85
2022/06/24 02:35:45;;;;;;;2.27;1.37;;;22.60;90.90;;;23.10;55.48;98058.84;4985861;28;122653;-86
2022/06/24 02:38:12;;;;;;;3.87;1.90;;;22.70;90.90;;;23.04;55.59;98061.31;4986409;28;114653;-85
2022/06/24 02:40:47;;;;;;;1.63;1.23;;;22.50;90.80;;;23.02;55.78;98060.13;4982750;28;114856;-85
2022/06/24 02:43:18;;;;;;;3.13;1.37;;;22.50;90.90;;;22.98;55.60;98060.16;4983580;28;124110;-85
2022/06/24 02:45:58;;;;;;;1.40;1.30;;;22.50;90.90;;;22.96;55.80;98064.59;4980948;28;123899;-86
2022/06/24 02:48:25;;;;;;;2.67;1.50;;;22.40;90.90;;;22.89;55.71;98060.59;4968856;28;113416;-85
2022/06/24 02:50:54;;;;;;;3.30;1.20;;;22.40;91.00;;;22.86;55.81;98058.63;4982114;28;113977;-86
2022/06/24 02:53:22;;;;;;;3.37;1.87;;;22.40;91.00;;;22.86;56.14;98064.25;4986203;28;124436;-85
2022/06/24 02:55:56;;;;;;;2.43;1.40;;;22.30;91.00;;;22.81;55.78;98056.25;4977209;28;124303;-85
2022/06/24 02:58:23;;;;;;;3.60;1.77;;;22.30;91.10;;;22.79;55.79;98063.50;4961475;28;114161;-85
2022/06/24 03:00:50;;;;;;;1.93;1.40;;;22.30;91.10;;;22.75;55.99;98055.06;4970860;28;113848;-85
2022/06/24 03:03:20;;;;;;;3.97;1.60;;;22.20;91.10;;;22.73;55.95;98063.13;4973429;28;123205;-86
2022/06/24 03:05:47;;;;;;;2.10;1.67;;;22.20;91.20;;;22.70;56.27;98063.94;4972418;28;124016;-86
2022/06/24 03:08:16;;;;;;;6.10;1.67;;;22.20;91.20;;;22.67;56.10;98057.09;4978799;28;114323;-85
2022/06/24 03:10:44;;;;;;;2.83;1.50;;;22.20;91.30;;;22.64;56.08;98059.97;4973799;28;113772;-85
2022/06/24 03:13:11;;;;;;;3.13;1.47;;;22.10;91.20;;;22.62;56.62;98057.56;4985908;28;124446;-86
2022/06/24 03:15:39;;;;;;;3.70;1.53;;;22.10;91.30;;;22.59;56.48;98054.75;4987150;28;123722;-86
2022/06/24 03:18:06;;;;;;;1.40;1.27;;;22.10;91.40;;;22.57;56.53;98057.16;4983296;28;114307;-85
2022/06/24 03:20:33;;;;;;;3.40;1.40;;;22.00;91.40;;;22.55;56.36;98054.78;4979272;28;114541;-85
2022/06/24 03:22:59;;;;;;;2.53;1.27;;;22.00;91.40;;;22.54;56.65;98047.56;4982350;28;123855;-85
2022/06/24 03:25:26;;;;;;;4.20;1.60;;;22.00;91.50;;;22.51;56.65;98054.00;4983103;28;123678;-85
2022/06/24 03:27:52;;;;;;;3.40;1.40;;;22.00;91.50;;;22.46;56.68;98046.78;4974050;28;115409;-86
2022/06/24 03:30:19;;;;;;;3.63;1.40;;;21.90;91.50;;;22.42;56.75;98045.22;4977242;28;115013;-86
2022/06/24 03:32:45;;;;;;;2.07;1.40;;;21.90;91.60;;;22.38;56.73;98044.41;4977941;28;123944;-86
2022/06/24 03:35:12;;;;;;;4.50;1.70;;;21.90;91.60;;;22.34;57.00;98052.88;4972661;28;123881;-86
2022/06/24 03:37:39;;;;;;;2.20;1.37;;;21.90;91.60;;;22.33;56.80;98051.28;5004968;28;113359;-86
2022/06/24 03:40:06;;;;;;;5.17;1.60;;;21.80;91.60;;;22.29;57.10;98042.03;4982413;28;113853;-86
2022/06/24 03:42:33;;;;;;;3.27;1.30;;;21.80;91.70;;;22.28;56.92;98051.72;4986011;28;123622;-85
2022/06/24 03:44:59;;;;;;;1.17;1.07;;;21.80;91.70;;;22.26;57.03;98043.66;4975066;28;124093;-85
2022/06/24 03:47:26;;;;;;;4.63;1.87;;;21.80;91.70;;;22.23;56.87;98049.31;4986168;28;113997;-86
2022/06/24 03:49:52;;;;;;;2.93;1.47;;;21.70;91.70;;;22.19;56.94;98040.91;4984043;28;113962;-86
2022/06/24 03:52:19;;;;;;;3.80;1.60;;;21.70;91.70;;;22.13;57.24;98052.94;4981981;28;122958;-86
2022/06/24 03:54:46;;;;;;;3.10;1.70;;;21.60;91.70;;;22.06;57.07;98034.88;4970466;28;124032;-86
2022/06/24 03:57:12;;;;;;;2.50;1.40;;;21.60;91.80;;;22.00;57.60;98036.53;4976931;28;113609;-86
2022/06/24 03:59:39;;;;;;;1.93;1.50;;;21.50;91.80;;;22.00;57.60;98035.72;4970331;28;113853;-85
2022/06/24 04:02:05;;;;;;;3.43;1.60;;;21.50;91.90;;;22.00;57.43;98035.72;4969249;28;124336;-85
2022/06/24 04:04:32;;;;;;;1.80;1.33;;;21.50;91.90;;;21.99;57.26;98042.56;4978071;28;123786;-86
2022/06/24 04:06:58;;;;;;;2.83;1.70;;;21.50;92.00;;;21.98;57.44;98049.41;4985569;28;114139;-86
2022/06/24 04:09:25;;;;;;;2.03;1.50;;;21.40;91.90;;;21.95;57.61;98044.56;4982838;28;114270;-86
2022/06/24 04:11:52;;;;;;;3.17;1.40;;;21.40;92.00;;;21.92;57.70;98045.38;4971420;28;124067;-85
2022/06/24 04:15:13;;;;;;;2.10;1.57;;;21.40;92.10;;;21.88;57.39;98036.16;4969956;28;123779;-85
2022/06/24 04:17:06;;;;;;;2.97;1.80;;;21.40;92.10;;;21.85;57.78;98040.59;4980702;28;115194;-85
2022/06/24 04:19:36;;;;;;;1.60;1.30;;;21.30;92.10;;;21.84;57.61;98033.34;4977013;28;114929;-86
2022/06/24 04:22:04;;;;;;;4.73;1.50;;;21.30;92.20;;;21.85;57.59;98029.34;4989504;28;124060;-87
2022/06/24 04:24:31;;;;;;;6.13;1.77;;;21.30;92.20;;;21.86;57.54;98030.16;4976480;28;123956;-85
2022/06/24 04:26:57;;;;;;;1.87;1.30;;;21.30;92.20;;;21.86;57.94;98036.56;4974719;28;114452;-84
2022/06/24 04:29:24;;;;;;;2.90;1.40;;;21.30;92.20;;;21.90;57.53;98042.19;4975629;28;113907;-85
2022/06/24 04:31:50;;;;;;;3.90;1.70;;;21.30;92.20;;;21.91;57.91;98036.16;4979216;28;124094;-86
2022/06/24 04:34:17;;;;;;;2.17;1.67;;;21.40;92.30;;;21.93;57.46;98039.38;4983158;28;124165;-85
2022/06/24 04:36:43;;;;;;;2.30;1.83;;;21.40;92.30;;;21.96;57.44;98035.72;4971960;28;114387;-84
2022/06/24 04:39:10;;;;;;;2.53;1.53;;;21.40;92.30;;;21.99;57.71;98029.28;4985971;28;113717;-85
2022/06/24 04:41:36;;;;;;;2.10;1.30;;;21.40;92.30;;;22.03;57.56;98034.88;4978792;28;125644;-84
2022/06/24 04:44:03;;;;;;;2.73;1.67;;;21.50;92.30;;;22.06;57.35;98026.44;4987179;28;123855;-85
2022/06/24 04:46:30;;;;;;;2.47;1.83;;;21.50;92.40;;;22.09;57.32;98027.66;4980296;28;114755;-84
2022/06/24 04:48:57;;;;;;;1.80;1.50;;;21.50;92.40;;;22.14;57.56;98020.78;4980985;28;114063;-85
2022/06/24 04:51:27;;;;;;;2.23;1.43;;;21.50;92.30;;;22.19;57.33;98020.38;4995381;28;124228;-85
2022/06/24 04:53:54;;;;;;;3.10;1.63;;;21.60;92.40;;;22.24;57.26;98019.97;4984312;28;123145;-86
2022/06/24 04:56:20;;;;;;;2.17;1.70;;;21.60;92.30;;;22.28;57.19;98023.56;4982846;28;114626;-85
2022/06/24 04:58:47;;;;;;;2.43;1.80;;;21.60;92.30;;;22.33;56.95;98025.97;4986980;28;114300;-86
2022/06/24 05:01:13;;;;;;;3.23;1.73;;;21.70;92.20;;;22.37;57.32;98025.94;4983829;28;123996;-87
2022/06/24 05:03:40;;;;;;;2.30;1.30;;;21.70;92.20;;;22.40;56.88;98025.91;4975222;28;124342;-85
2022/06/24 05:06:06;;;;;;;2.20;1.53;;;21.80;92.20;;;22.45;56.83;98027.50;4976431;28;115612;-86
2022/06/24 05:08:36;;;;;;;3.27;2.13;;;21.80;92.20;;;22.49;56.93;98014.22;4983834;28;115122;-87
2022/06/24 05:11:04;;;;;;;2.83;1.80;;;21.80;92.10;;;22.52;56.70;98024.66;4984851;28;124120;-87
2022/06/24 05:13:31;;;;;;;4.80;1.83;;;21.90;92.10;;;22.55;56.93;98020.22;4979034;28;123403;-86
2022/06/24 05:15:58;;;;;;;1.60;1.50;;;21.90;92.10;;;22.59;56.50;98015.34;4986417;28;114485;-87
2022/06/24 05:18:24;;;;;;;2.93;1.60;;;22.00;92.00;;;22.63;56.67;98021.75;4984711;28;113146;-85
2022/06/24 05:20:51;;;;;;;7.80;1.77;;;22.00;92.00;;;22.69;56.77;98020.09;4977434;28;124094;-85
2022/06/24 05:23:17;;;;;;;4.10;1.50;;;22.00;92.00;;;22.69;56.47;98020.91;4981619;28;124508;-86
2022/06/24 05:25:43;;;;;;;4.63;1.90;;;22.10;92.00;;;22.76;56.68;98013.63;4981473;28;114292;-84
2022/06/24 05:28:10;;;;;;;4.10;2.50;;;22.10;92.00;;;22.81;56.39;98008.34;4978340;28;114543;-86
2022/06/24 05:30:36;;;;;;;4.20;2.03;;;22.20;92.10;;;22.86;56.34;97996.66;4977896;28;124324;-86
2022/06/24 05:33:03;;;;;;;6.40;1.73;;;22.20;92.00;;;22.94;56.20;97998.19;4977890;28;123847;-86
2022/06/24 05:35:30;;;;;;;2.10;1.63;;;22.30;92.00;;;23.02;56.21;98004.56;4979129;28;114954;-85
2022/06/24 05:37:56;;;;;;;3.50;1.83;;;22.30;91.90;;;23.06;55.93;98008.19;4975042;28;114242;-87
2022/06/24 05:40:23;;;;;;;3.23;1.70;;;22.40;91.90;;;23.12;55.85;98002.88;4982712;28;124322;-85
2022/06/24 05:42:49;;;;;;;2.67;1.97;;;22.40;91.80;;;23.20;55.90;97995.97;4992669;28;124786;-85
2022/06/24 05:45:16;;;;;;;1.93;1.30;;;22.50;91.80;;;23.29;55.87;97996.31;4986223;28;114147;-85
2022/06/24 05:47:42;;;;;;;2.23;1.47;;;22.60;91.70;;;23.40;55.48;97998.19;4992537;28;114922;-85
2022/06/24 05:50:09;;;;;;;3.77;1.90;;;22.70;91.70;;;23.46;55.29;97991.69;4981712;28;123902;-86
2022/06/24 05:55:21;;;;;;;3.43;1.93;;;22.80;91.50;;;23.59;54.77;97992.75;4995358;28;115785;-85
2022/06/24 05:57:48;;;;;;;3.37;1.83;;;22.90;91.40;;;23.66;54.61;97991.06;4980501;28;115892;-85
2022/06/24 06:00:15;;;;;;;3.73;1.70;;;23.00;91.30;;;23.71;54.47;97997.09;4978846;28;124007;-86
2022/06/24 06:02:41;;;;;;;2.23;1.50;;;23.00;91.20;;;23.79;54.49;97995.78;4989099;28;123977;-85
2022/06/24 06:05:08;;;;;;;2.80;1.70;;;23.10;91.20;;;23.86;54.38;97989.25;4988097;28;114326;-86
2022/06/24 06:07:34;;;;;;;4.73;2.00;;;23.20;91.00;;;23.92;54.11;97996.03;4980530;28;113887;-85
2022/06/24 06:10:01;;;;;;;3.93;1.63;;;23.30;91.00;;;23.97;53.92;97989.13;4981448;28;123168;-85
2022/06/24 06:12:28;;;;;;;2.93;2.20;;;23.30;90.80;;;24.03;53.83;97988.22;5002260;28;123323;-86
2022/06/24 06:14:55;;;;;;;5.50;2.40;;;23.40;90.80;;;24.09;53.65;97985.72;4978002;28;114219;-84
2022/06/24 06:17:22;;;;;;;3.93;1.90;;;23.50;90.70;;;24.16;53.30;97993.31;4973687;28;112287;-85
2022/06/24 06:19:48;;;;;;;4.07;2.10;;;23.50;90.50;;;24.18;53.29;97990.84;4979641;28;124244;-85
2022/06/24 06:22:15;;;;;;;11.03;2.50;;;23.50;90.40;;;24.22;53.14;97991.63;4979460;28;124009;-85
2022/06/24 06:24:41;;;;;;;3.07;1.63;;;23.60;90.30;;;24.30;52.65;98000.78;4972679;28;113871;-86
2022/06/24 06:27:08;;;;;;;3.33;1.90;;;23.70;90.20;;;24.31;52.89;98002.38;4976811;28;113936;-85
2022/06/24 06:29:34;;;;;;;5.23;2.23;;;23.70;90.10;;;24.33;52.23;98003.56;4986298;28;124464;-87
2022/06/24 06:32:01;;;;;;;6.20;2.10;;;23.70;89.80;;;24.37;52.69;98004.31;4972380;28;124291;-85
2022/06/24 06:34:27;;;;;;;5.63;1.80;;;23.70;89.80;;;24.45;52.43;98014.31;4989791;28;114454;-84
2022/06/24 06:36:54;;;;;;;5.57;2.07;;;23.80;89.70;;;24.55;52.20;98006.91;4975456;28;114114;-85
2022/06/24 06:39:20;;;;;;;1.80;1.50;;;23.90;89.60;;;24.63;51.90;98010.44;4978918;28;123415;-85
2022/06/24 06:41:47;;;;;;;6.93;2.80;;;24.00;89.40;;;24.69;51.67;98012.38;4973130;28;123701;-84
2022/06/24 06:44:16;;;;;;;3.93;1.60;;;24.00;88.80;;;24.74;51.58;97996.13;4971991;28;115573;-84
2022/06/24 06:46:43;;;;;;;3.53;1.70;;;24.10;88.90;;;24.81;51.82;97996.84;4977747;28;114763;-85
2022/06/24 06:49:09;;;;;;;2.40;1.40;;;24.20;88.90;;;24.89;51.61;98006.78;4972530;28;124236;-86
2022/06/24 06:51:36;;;;;;;4.57;2.20;;;24.20;88.70;;;24.99;51.12;98007.06;4976858;28;124002;-85
2022/06/24 06:54:03;;;;;;;2.47;1.83;;;24.30;88.50;;;25.02;50.86;97998.50;4970712;28;114507;-85
2022/06/24 06:56:30;;;;;;;3.50;2.27;;;24.40;88.40;;;25.09;51.31;98001.22;4981091;28;113725;-84
2022/06/24 06:58:56;;;;;;;3.17;1.63;;;24.40;88.20;;;25.16;50.68;97991.84;4988398;28;123785;-87
2022/06/24 07:01:23;;;;;;;4.10;2.00;;;24.50;88.10;;;25.24;50.95;98006.66;4981945;28;123982;-88
2022/06/24 07:03:50;;;;;;;4.77;1.80;;;24.60;88.00;;;25.32;50.72;97997.63;4984444;28;114843;-87
2022/06/24 07:06:17;;;;;;;3.40;2.03;;;24.70;87.90;;;25.40;50.59;97998.28;4989785;28;112811;-88
2022/06/24 07:08:44;;;;;;;2.33;1.70;;;24.70;87.50;;;25.44;50.36;97998.22;4993706;28;123520;-88
2022/06/24 07:11:12;;;;;;;2.93;1.93;;;24.70;87.10;;;25.43;49.47;98002.28;4974498;28;122154;-88
2022/06/24 07:13:39;;;;;;;3.03;2.10;;;24.80;86.50;;;25.44;49.41;97998.22;4989674;28;113518;-88
2022/06/24 07:16:10;;;;;;;4.13;2.63;;;24.80;86.20;;;25.40;49.16;98001.13;4984296;28;114083;-88
2022/06/24 07:18:37;;;;;;;3.77;2.10;;;24.80;85.40;;;25.39;49.09;97996.69;4961922;28;124217;-89
2022/06/24 07:21:03;;;;;;;6.70;2.73;;;24.90;85.00;;;25.40;48.62;98006.78;4978411;28;123861;-89
2022/06/24 07:23:30;;;;;;;5.10;2.10;;;24.90;84.70;;;25.39;48.64;98008.00;4969809;28;114417;-88
2022/06/24 07:25:58;;;;;;;3.23;2.17;;;24.90;84.50;;;25.35;49.14;98002.41;4983790;28;112875;-87
2022/06/24 07:28:25;;;;;;;4.00;2.73;;;24.80;84.40;;;25.33;48.80;98009.72;4998260;28;123392;-88
2022/06/24 07:30:52;;;;;;;7.03;2.13;;;24.80;85.10;;;25.33;48.80;98009.72;4987246;28;122413;-88
2022/06/24 07:33:19;;;;;;;2.73;1.90;;;24.80;84.50;;;25.35;48.76;98005.22;4977214;28;115510;-89
2022/06/24 07:35:45;;;;;;;4.03;2.00;;;24.80;84.30;;;25.37;48.38;98012.50;4981118;28;113546;-88
2022/06/24 07:38:12;;;;;;;6.83;2.37;;;24.90;84.00;;;25.33;48.25;98009.72;4993803;27;124206;-88
2022/06/24 07:40:38;;;;;;;6.83;2.10;;;24.90;83.50;;;25.26;48.37;98015.53;4984249;28;123652;-88
2022/06/24 07:43:05;;;;;;;3.70;1.70;;;24.80;83.30;;;25.23;48.67;98016.38;5003027;28;113300;-88
2022/06/24 07:45:32;;;;;;;6.83;2.07;;;24.80;83.40;;;25.23;48.23;98022.03;4985455;28;114369;-89
2022/06/24 07:47:59;;;;;;;4.30;1.90;;;24.80;83.30;;;25.20;48.66;98006.72;4986492;28;124006;-90
2022/06/24 07:50:25;;;;;;;2.83;1.80;;;24.80;83.40;;;25.23;48.57;98007.91;4986910;28;123950;-87
2022/06/24 07:52:52;;;;;;;3.30;1.93;;;24.70;83.40;;;25.26;48.06;98009.88;4980209;28;114297;-88
2022/06/24 07:58:04;;;;;;;3.30;1.90;;;24.70;83.10;;;25.31;48.29;97995.25;4982565;28;124698;-87
2022/06/24 08:00:31;;;;;;;3.93;1.87;;;24.80;83.00;;;25.35;47.92;97998.78;4979186;28;123685;-90
2022/06/24 08:02:57;;;;;;;2.70;1.80;;;24.80;83.00;;;25.35;48.01;97985.44;4983701;28;115016;-88
2022/06/24 08:05:24;;;;;;;3.67;2.17;;;24.80;82.70;;;25.34;47.73;97983.06;4991320;28;113071;-86
2022/06/24 08:07:50;;;;;;;3.43;1.83;;;24.80;82.50;;;25.37;47.67;97985.00;4973515;28;124509;-87
2022/06/24 08:10:17;;;;;;;3.63;1.80;;;24.90;82.50;;;25.40;48.00;97972.84;4973524;28;124173;-88
2022/06/24 08:12:44;;;;;;;3.13;2.10;;;24.90;82.60;;;25.48;48.01;97971.47;4981150;28;114261;-87
2022/06/24 08:15:11;;;;;;;1.73;1.60;;;24.90;82.50;;;25.59;47.35;97962.78;4971936;28;113361;-89
2022/06/24 08:17:37;;;;;;;1.67;1.30;;;25.00;82.40;;;25.68;47.30;97962.97;4974903;28;124008;-93
2022/06/24 08:20:06;;;;;;;5.20;1.90;;;25.10;82.10;;;25.75;46.55;97964.88;4982317;28;124082;-91
2022/06/24 08:22:32;;;;;;;1.20;1.10;;;25.10;81.20;;;25.81;46.54;97965.19;4984986;28;114841;-85
2022/06/24 08:24:59;;;;;;;3.37;2.37;;;25.20;81.40;;;25.87;45.92;97961.44;4986644;28;115196;-88
2022/06/24 08:27:26;;;;;;;3.47;1.70;;;25.30;79.90;;;25.88;45.49;97962.25;4982742;27;124070;-91
2022/06/24 08:29:52;;;;;;;3.40;1.50;;;25.30;79.20;;;25.87;44.94;97952.13;4970999;28;123595;-93
2022/06/24 08:32:20;;;;;;;3.30;1.73;;;25.30;78.60;;;25.88;45.12;97950.91;4977436;28;114231;-92
2022/06/24 08:34:47;;;;;;;2.07;1.57;;;25.30;78.60;;;25.95;45.07;97951.56;4982053;28;113948;-87
2022/06/24 08:37:13;;;;;;;1.83;1.63;;;25.40;78.60;;;26.05;45.16;97943.28;4978082;28;123444;-87
2022/06/24 08:39:43;;;;;;;3.60;1.80;;;25.50;78.50;;;26.04;44.96;97944.53;4978473;28;124332;-88
2022/06/24 08:42:12;;;;;;;2.00;1.70;;;24.90;77.50;;;26.06;44.80;97937.19;4971032;28;114744;-89
2022/06/24 08:44:40;;;;;;;2.00;1.30;;;25.50;77.80;;;26.11;44.70;97930.97;4980364;28;113996;-89
2022/06/24 08:47:13;;;;;;;1.40;1.20;;;25.50;77.60;;;26.21;44.27;97934.81;4962621;28;123088;-87
2022/06/24 08:49:40;;;;;;;1.20;1.10;;;25.60;77.30;;;26.28;44.06;97926.16;4986347;28;124473;-87
2022/06/24 08:52:10;;;;;;;2.60;1.37;;;25.70;77.20;;;26.32;43.73;97931.75;4959151;28;114241;-90
2022/06/24 08:54:42;;;;;;;3.50;1.40;;;25.70;76.80;;;26.27;43.32;97935.88;4975393;28;114414;-87
2022/06/24 08:57:11;;;;;;;2.10;1.53;;;25.70;75.80;;;26.17;43.42;97934.13;4980224;28;124575;-86
2022/06/24 08:59:38;;;;;;;2.70;1.60;;;25.70;75.60;;;26.10;43.75;97937.88;4958367;28;123242;-88
2022/06/24 09:02:05;;;;;;;3.60;1.50;;;25.70;75.50;;;26.05;43.85;97938.41;4986667;28;114332;-86
2022/06/24 09:04:34;;;;;;;2.27;1.60;;;25.60;75.60;;;26.02;44.01;97941.31;4971709;28;114751;-89
2022/06/24 09:07:01;;;;;;;3.37;1.40;;;25.60;75.40;;;25.99;43.68;97928.84;4984170;28;123587;-86
2022/06/24 09:09:28;;;;;;;3.10;1.73;;;25.60;75.30;;;25.98;43.74;97930.88;4978918;28;123081;-88
2022/06/24 09:12:02;;;;;;;1.50;1.33;;;25.60;75.50;;;26.03;44.12;97921.06;4975642;28;115354;-89
2022/06/24 09:14:47;;;;;;;6.13;1.50;;;25.50;75.80;;;26.06;44.26;97917.38;4979625;28;115358;-88
2022/06/24 09:17:14;;;;;;;2.43;1.60;;;25.60;75.90;;;26.08;43.83;97911.25;4974383;28;123893;-88
2022/06/24 09:19:40;;;;;;;2.17;1.60;;;25.60;75.90;;;26.12;44.26;97923.31;4980816;28;123943;-90
2022/06/24 09:22:07;;;;;;;2.13;1.87;;;25.60;75.80;;;26.13;43.77;97919.22;4974780;28;114183;-89
2022/06/24 09:24:45;;;;;;;1.40;1.30;;;25.60;75.70;;;26.14;44.14;97913.13;4977429;28;114762;-89
2022/06/24 09:27:12;;;;;;;2.60;1.37;;;25.70;75.60;;;26.14;43.76;97909.47;4969238;28;124517;-90
2022/06/24 09:29:48;;;;;;;2.50;1.60;;;25.70;75.40;;;26.14;43.61;97921.63;4982501;28;124160;-87
2022/06/24 09:32:15;;;;;;;2.30;1.47;;;25.70;75.30;;;26.15;43.55;97911.09;4978154;28;114763;-86
2022/06/24 09:35:07;;;;;;;1.33;1.23;;;25.70;75.40;;;26.18;43.90;97898.88;4977267;28;114006;-89
2022/06/24 09:37:50;;;;;;;1.70;1.30;;;25.70;75.30;;;26.25;43.32;97912.06;4982253;28;123750;-87
2022/06/24 09:40:27;;;;;;;1.57;1.30;;;25.70;75.20;;;26.28;43.33;97912.00;4992514;28;123759;-90
2022/06/24 09:43:04;;;;;;;1.60;1.30;;;25.70;75.00;;;26.34;43.18;97910.25;4981549;28;114550;-89
2022/06/24 09:45:45;;;;;;;4.03;1.70;;;25.80;75.00;;;26.40;43.01;97902.81;4986728;28;114316;-88
2022/06/24 09:48:29;;;;;;;1.43;1.30;;;25.80;74.80;;;26.47;43.56;97901.84;4981959;28;124236;-90
2022/06/24 09:51:02;;;;;;;2.50;1.87;;;25.90;74.90;;;26.53;43.54;97899.31;4975184;28;123459;-89
2022/06/24 09:57:11;;;;;;;3.23;1.50;;;26.00;74.60;;;26.62;43.59;97902.31;5007249;28;115053;-87
2022/06/24 10:02:43;;;;;;;2.93;1.43;;;26.00;75.10;;;26.64;43.43;97888.50;4998419;28;123517;-87
2022/06/24 10:05:15;;;;;;;3.00;1.70;;;26.10;75.80;;;26.65;43.57;97884.41;4995096;28;115806;-89
2022/06/24 10:07:47;;;;;;;2.10;1.60;;;26.10;74.70;;;26.69;43.48;97887.97;5003576;28;115977;-86
2022/06/24 10:10:16;;;;;;;1.90;1.53;;;26.10;74.70;;;26.74;43.09;97887.44;4985007;28;123522;-88
2022/06/24 10:12:54;;;;;;;3.00;1.57;;;26.20;74.80;;;26.78;43.37;97888.13;4976429;28;124171;-84
2022/06/24 10:15:21;;;;;;;2.80;2.00;;;26.20;74.60;;;26.79;43.13;97884.06;4980062;28;114709;-87
2022/06/24 10:17:50;;;;;;;1.60;1.50;;;26.30;74.70;;;26.86;43.28;97891.59;4979416;28;113839;-88
2022/06/24 10:20:17;;;;;;;1.87;1.40;;;26.30;74.60;;;26.94;42.91;97878.03;4979644;28;124415;-87
2022/06/24 10:22:49;;;;;;;1.87;1.30;;;26.30;74.10;;;26.97;42.65;97875.09;4976719;28;123914;-88
2022/06/24 10:25:20;;;;;;;1.90;1.20;;;26.40;73.90;;;27.02;42.68;97885.09;4973089;28;114608;-86
2022/06/24 10:27:58;;;;;;;2.00;1.40;;;26.40;73.50;;;27.02;42.63;97887.94;4984932;28;113277;-87
2022/06/24 10:30:40;;;;;;;1.30;1.20;;;26.50;73.30;;;27.02;42.55;97899.28;4989761;28;124054;-89
2022/06/24 10:33:20;;;;;;;1.33;1.20;;;26.50;73.20;;;27.05;42.86;97892.72;4972192;28;122951;-87